sensor_id;sensor_type;location;lat;lon;timestamp;pressure;altitude;pressure_sealevel;temperature;humidity
50684;BME280;36654;45.042;38.994;2022-10-31T00:00:48;100990.16;;;12.03;93.78
50684;BME280;36654;45.042;38.994;2022-10-31T00:03:15;101055.09;;;12.31;93.87
50684;BME280;36654;45.042;38.994;2022-10-31T00:05:48;101046.19;;;12.27;93.83
50684;BME280;36654;45.042;38.994;2022-10-31T00:08:15;101047.13;;;12.33;93.73
50684;BME280;36654;45.042;38.994;2022-10-31T00:10:42;100996.44;;;12.13;93.71
50684;BME280;36654;45.042;38.994;2022-10-31T00:13:08;101050.69;;;12.35;93.69
50684;BME280;36654;45.042;38.994;2022-10-31T00:15:38;101050.72;;;12.38;93.52
50684;BME280;36654;45.042;38.994;2022-10-31T00:18:05;101047.19;;;12.39;93.54
50684;BME280;36654;45.042;38.994;2022-10-31T00:20:31;101045.44;;;12.41;93.67
50684;BME280;36654;45.042;38.994;2022-10-31T00:22:58;101039.25;;;12.42;93.19
50684;BME280;36654;45.042;38.994;2022-10-31T00:25:24;101041.91;;;12.45;93.00
50684;BME280;36654;45.042;38.994;2022-10-31T00:27:50;101047.25;;;12.48;92.63
50684;BME280;36654;45.042;38.994;2022-10-31T00:30:16;101036.59;;;12.43;92.52
50684;BME280;36654;45.042;38.994;2022-10-31T00:32:41;101038.41;;;12.49;92.38
50684;BME280;36654;45.042;38.994;2022-10-31T00:35:07;101049.06;;;12.49;92.23
50684;BME280;36654;45.042;38.994;2022-10-31T00:37:32;101034.88;;;12.50;92.28
50684;BME280;36654;45.042;38.994;2022-10-31T00:39:58;101034.81;;;12.44;92.53
50684;BME280;36654;45.042;38.994;2022-10-31T00:42:24;101032.19;;;12.47;92.67
50684;BME280;36654;45.042;38.994;2022-10-31T00:44:49;101000.13;;;12.27;92.79
50684;BME280;36654;45.042;38.994;2022-10-31T00:47:15;101021.50;;;12.41;93.12
50684;BME280;36654;45.042;38.994;2022-10-31T00:49:40;101030.34;;;12.40;93.21
50684;BME280;36654;45.042;38.994;2022-10-31T00:52:06;101035.69;;;12.38;93.62
50684;BME280;36654;45.042;38.994;2022-10-31T00:54:32;101023.25;;;12.36;93.98
50684;BME280;36654;45.042;38.994;2022-10-31T00:56:57;101042.72;;;12.33;94.20
50684;BME280;36654;45.042;38.994;2022-10-31T00:59:23;101019.63;;;12.26;94.62
50684;BME280;36654;45.042;38.994;2022-10-31T01:01:49;101033.81;;;12.29;94.94
50684;BME280;36654;45.042;38.994;2022-10-31T01:04:14;101024.00;;;12.22;95.17
50684;BME280;36654;45.042;38.994;2022-10-31T01:06:40;100968.88;;;12.00;95.57
50684;BME280;36654;45.042;38.994;2022-10-31T01:09:06;100964.44;;;11.96;95.99
50684;BME280;36654;45.042;38.994;2022-10-31T01:11:31;101006.25;;;12.18;96.37
50684;BME280;36654;45.042;38.994;2022-10-31T01:13:57;100993.75;;;12.08;96.91
50684;BME280;36654;45.042;38.994;2022-10-31T01:16:24;101009.75;;;12.14;97.14
50684;BME280;36654;45.042;38.994;2022-10-31T01:18:51;101000.84;;;12.09;97.56
50684;BME280;36654;45.042;38.994;2022-10-31T01:21:22;100993.81;;;12.14;97.66
50684;BME280;36654;45.042;38.994;2022-10-31T01:23:49;100991.16;;;12.14;97.97
50684;BME280;36654;45.042;38.994;2022-10-31T01:26:21;101000.88;;;12.11;98.09
50684;BME280;36654;45.042;38.994;2022-10-31T01:28:55;100983.16;;;12.11;98.44
50684;BME280;36654;45.042;38.994;2022-10-31T01:31:23;100999.97;;;12.10;98.73
50684;BME280;36654;45.042;38.994;2022-10-31T01:33:49;100993.72;;;12.05;98.94
50684;BME280;36654;45.042;38.994;2022-10-31T01:38:48;101000.84;;;12.09;99.65
50684;BME280;36654;45.042;38.994;2022-10-31T01:41:18;101008.84;;;12.11;99.86
50684;BME280;36654;45.042;38.994;2022-10-31T01:43:53;101001.72;;;12.09;100.00
50684;BME280;36654;45.042;38.994;2022-10-31T01:46:23;100999.09;;;12.11;100.00
50684;BME280;36654;45.042;38.994;2022-10-31T01:48:51;100984.94;;;12.12;100.00
50684;BME280;36654;45.042;38.994;2022-10-31T01:51:20;100984.94;;;12.11;100.00
50684;BME280;36654;45.042;38.994;2022-10-31T01:53:49;100944.94;;;11.97;100.00
50684;BME280;36654;45.042;38.994;2022-10-31T01:56:17;100986.66;;;12.07;100.00
50684;BME280;36654;45.042;38.994;2022-10-31T01:58:45;100992.91;;;12.11;100.00
50684;BME280;36654;45.042;38.994;2022-10-31T02:01:12;100984.00;;;12.10;100.00
50684;BME280;36654;45.042;38.994;2022-10-31T02:03:40;100978.72;;;12.08;100.00
50684;BME280;36654;45.042;38.994;2022-10-31T02:06:13;100984.94;;;12.12;100.00
50684;BME280;36654;45.042;38.994;2022-10-31T02:08:43;100961.81;;;12.05;100.00
50684;BME280;36654;45.042;38.994;2022-10-31T02:11:09;100966.34;;;12.14;100.00
50684;BME280;36654;45.042;38.994;2022-10-31T02:13:34;100966.34;;;12.11;100.00
50684;BME280;36654;45.042;38.994;2022-10-31T02:16:00;100960.16;;;12.16;100.00
50684;BME280;36654;45.042;38.994;2022-10-31T02:18:28;100951.31;;;12.17;100.00
50684;BME280;36654;45.042;38.994;2022-10-31T02:21:11;100951.31;;;12.19;100.00
50684;BME280;36654;45.042;38.994;2022-10-31T02:29:20;100962.88;;;12.21;100.00
50684;BME280;36654;45.042;38.994;2022-10-31T02:35:03;100954.88;;;12.22;100.00
50684;BME280;36654;45.042;38.994;2022-10-31T02:37:40;100947.75;;;12.15;100.00
50684;BME280;36654;45.042;38.994;2022-10-31T02:40:17;100894.44;;;11.91;100.00
50684;BME280;36654;45.042;38.994;2022-10-31T02:43:05;100952.22;;;12.19;100.00
50684;BME280;36654;45.042;38.994;2022-10-31T02:45:39;100947.78;;;12.18;100.00
50684;BME280;36654;45.042;38.994;2022-10-31T02:48:10;100908.59;;;11.93;100.00
50684;BME280;36654;45.042;38.994;2022-10-31T02:50:41;100947.72;;;12.12;100.00
50684;BME280;36654;45.042;38.994;2022-10-31T02:53:08;100933.50;;;12.07;100.00
50684;BME280;36654;45.042;38.994;2022-10-31T03:00:25;100968.13;;;12.18;100.00
50684;BME280;36654;45.042;38.994;2022-10-31T03:06:49;100939.78;;;12.17;100.00
50684;BME280;36654;45.042;38.994;2022-10-31T03:09:11;100923.84;;;12.14;100.00
50684;BME280;36654;45.042;38.994;2022-10-31T03:15:05;100926.44;;;12.09;100.00
50684;BME280;36654;45.042;38.994;2022-10-31T03:20:24;100932.66;;;12.09;100.00
50684;BME280;36654;45.042;38.994;2022-10-31T03:22:52;100917.63;;;12.13;100.00
50684;BME280;36654;45.042;38.994;2022-10-31T03:25:19;100905.13;;;12.03;100.00
50684;BME280;36654;45.042;38.994;2022-10-31T03:27:46;100922.94;;;12.15;100.00
50684;BME280;36654;45.042;38.994;2022-10-31T03:30:13;100922.91;;;12.12;100.00
50684;BME280;36654;45.042;38.994;2022-10-31T03:32:43;100905.22;;;12.11;99.93
50684;BME280;36654;45.042;38.994;2022-10-31T03:35:11;100912.25;;;12.07;99.60
50684;BME280;36654;45.042;38.994;2022-10-31T03:37:39;100850.94;;;11.85;99.49
50684;BME280;36654;45.042;38.994;2022-10-31T03:40:07;100862.44;;;11.81;99.15
50684;BME280;36654;45.042;38.994;2022-10-31T03:42:38;100899.91;;;12.11;99.16
50684;BME280;36654;45.042;38.994;2022-10-31T03:45:10;100902.53;;;12.09;99.41
50684;BME280;36654;45.042;38.994;2022-10-31T03:47:38;100888.34;;;12.07;99.37
50684;BME280;36654;45.042;38.994;2022-10-31T03:50:07;100811.03;;;11.73;98.97
50684;BME280;36654;45.042;38.994;2022-10-31T03:52:41;100875.06;;;12.07;98.63
50684;BME280;36654;45.042;38.994;2022-10-31T03:55:10;100879.47;;;12.06;98.48
50684;BME280;36654;45.042;38.994;2022-10-31T03:57:49;100890.09;;;12.05;98.46
50684;BME280;36654;45.042;38.994;2022-10-31T04:00:17;100896.28;;;12.04;98.18
50684;BME280;36654;45.042;38.994;2022-10-31T04:03:04;100901.59;;;12.04;98.30
50684;BME280;36654;45.042;38.994;2022-10-31T04:05:33;100881.19;;;12.00;98.46
50684;BME280;36654;45.042;38.994;2022-10-31T04:08:01;100889.19;;;12.03;98.84
50684;BME280;36654;45.042;38.994;2022-10-31T04:10:30;100850.06;;;11.83;98.74
50684;BME280;36654;45.042;38.994;2022-10-31T04:13:02;100895.38;;;12.02;98.99
50684;BME280;36654;45.042;38.994;2022-10-31T04:15:30;100890.09;;;12.05;98.71
50684;BME280;36654;45.042;38.994;2022-10-31T04:17:58;100852.75;;;11.86;98.44
50684;BME280;36654;45.042;38.994;2022-10-31T04:20:36;100891.88;;;12.07;98.31
50684;BME280;36654;45.042;38.994;2022-10-31T04:23:03;100900.75;;;12.09;98.07
50684;BME280;36654;45.042;38.994;2022-10-31T04:25:29;100898.13;;;12.11;97.98
50684;BME280;36654;45.042;38.994;2022-10-31T04:27:55;100907.88;;;12.15;97.94
50684;BME280;36654;45.042;38.994;2022-10-31T04:30:21;100891.00;;;12.10;98.04
50684;BME280;36654;45.042;38.994;2022-10-31T04:32:47;100873.19;;;11.94;97.80
50684;BME280;36654;45.042;38.994;2022-10-31T04:35:12;100918.50;;;12.12;97.65
50684;BME280;36654;45.042;38.994;2022-10-31T04:37:38;100919.41;;;12.17;97.42
50684;BME280;36654;45.042;38.994;2022-10-31T04:40:04;100921.16;;;12.15;97.68
50684;BME280;36654;45.042;38.994;2022-10-31T04:42:30;100922.09;;;12.16;97.71
50684;BME280;36654;45.042;38.994;2022-10-31T04:44:56;100909.69;;;12.19;97.52
50684;BME280;36654;45.042;38.994;2022-10-31T04:47:21;100886.53;;;12.01;97.58
50684;BME280;36654;45.042;38.994;2022-10-31T04:49:47;100919.47;;;12.23;97.47
50684;BME280;36654;45.042;38.994;2022-10-31T04:52:13;100903.53;;;12.26;97.54
50684;BME280;36654;45.042;38.994;2022-10-31T04:54:38;100918.63;;;12.29;97.47
50684;BME280;36654;45.042;38.994;2022-10-31T04:57:04;100893.84;;;12.35;96.98
50684;BME280;36654;45.042;38.994;2022-10-31T04:59:30;100906.28;;;12.36;96.63
50684;BME280;36654;45.042;38.994;2022-10-31T05:01:55;100910.69;;;12.37;96.36
50684;BME280;36654;45.042;38.994;2022-10-31T05:04:21;100854.72;;;12.15;96.01
50684;BME280;36654;45.042;38.994;2022-10-31T05:06:47;100891.22;;;12.39;96.28
50684;BME280;36654;45.042;38.994;2022-10-31T05:09:12;100901.88;;;12.44;96.69
50684;BME280;36654;45.042;38.994;2022-10-31T05:11:38;100859.25;;;12.28;96.51
50684;BME280;36654;45.042;38.994;2022-10-31T05:14:04;100852.19;;;12.30;96.24
50684;BME280;36654;45.042;38.994;2022-10-31T05:16:29;100882.44;;;12.57;95.76
50684;BME280;36654;45.042;38.994;2022-10-31T05:18:55;100846.00;;;12.35;95.46
50684;BME280;36654;45.042;38.994;2022-10-31T05:21:20;100885.16;;;12.68;95.37
50684;BME280;36654;45.042;38.994;2022-10-31T05:23:46;100884.25;;;12.64;95.13
50684;BME280;36654;45.042;38.994;2022-10-31T05:26:12;100880.75;;;12.68;94.44
50684;BME280;36654;45.042;38.994;2022-10-31T05:28:37;100894.97;;;12.73;93.66
50684;BME280;36654;45.042;38.994;2022-10-31T05:31:03;100894.94;;;12.75;93.26
50684;BME280;36654;45.042;38.994;2022-10-31T05:33:29;100872.75;;;12.70;93.08
50684;BME280;36654;45.042;38.994;2022-10-31T05:35:56;100869.28;;;12.79;93.30
50684;BME280;36654;45.042;38.994;2022-10-31T05:38:22;100880.81;;;12.84;93.44
50684;BME280;36654;45.042;38.994;2022-10-31T05:40:48;100886.16;;;12.90;93.37
50684;BME280;36654;45.042;38.994;2022-10-31T05:43:13;100879.06;;;12.89;93.19
50684;BME280;36654;45.042;38.994;2022-10-31T05:45:39;100885.31;;;12.95;93.42
50684;BME280;36654;45.042;38.994;2022-10-31T05:48:05;100869.34;;;12.99;93.12
50684;BME280;36654;45.042;38.994;2022-10-31T05:50:31;100888.84;;;13.05;93.04
50684;BME280;36654;45.042;38.994;2022-10-31T05:53:01;100891.56;;;13.08;92.59
50684;BME280;36654;45.042;38.994;2022-10-31T05:55:28;100893.31;;;13.09;91.85
50684;BME280;36654;45.042;38.994;2022-10-31T05:57:54;100882.69;;;13.09;91.21
50684;BME280;36654;45.042;38.994;2022-10-31T06:00:21;100872.03;;;13.03;90.72
50684;BME280;36654;45.042;38.994;2022-10-31T06:02:47;100891.53;;;13.05;91.20
50684;BME280;36654;45.042;38.994;2022-10-31T06:05:14;100882.66;;;13.06;91.53
50684;BME280;36654;45.042;38.994;2022-10-31T06:07:39;100883.56;;;13.11;91.70
50684;BME280;36654;45.042;38.994;2022-10-31T06:10:07;100873.81;;;13.10;91.38
50684;BME280;36654;45.042;38.994;2022-10-31T06:12:33;100872.94;;;13.19;90.48
50684;BME280;36654;45.042;38.994;2022-10-31T06:15:06;100876.50;;;13.24;90.35
50684;BME280;36654;45.042;38.994;2022-10-31T06:17:33;100878.34;;;13.31;90.58
50684;BME280;36654;45.042;38.994;2022-10-31T06:19:59;100872.13;;;13.34;90.03
50684;BME280;36654;45.042;38.994;2022-10-31T06:22:24;100887.25;;;13.46;90.17
50684;BME280;36654;45.042;38.994;2022-10-31T06:24:50;100879.25;;;13.56;90.07
50684;BME280;36654;45.042;38.994;2022-10-31T06:27:16;100838.41;;;13.45;89.53
50684;BME280;36654;45.042;38.994;2022-10-31T06:29:41;100870.41;;;13.67;89.31
50684;BME280;36654;45.042;38.994;2022-10-31T06:32:10;100875.75;;;13.76;88.81
50684;BME280;36654;45.042;38.994;2022-10-31T06:34:35;100876.63;;;13.76;88.70
50684;BME280;36654;45.042;38.994;2022-10-31T06:37:01;100861.53;;;13.71;88.46
50684;BME280;36654;45.042;38.994;2022-10-31T06:39:26;100862.41;;;13.71;88.48
50684;BME280;36654;45.042;38.994;2022-10-31T06:41:52;100844.66;;;13.69;88.61
50684;BME280;36654;45.042;38.994;2022-10-31T06:44:18;100813.56;;;13.52;88.72
50684;BME280;36654;45.042;38.994;2022-10-31T06:46:46;100864.19;;;13.83;88.76
50684;BME280;36654;45.042;38.994;2022-10-31T06:49:12;100855.31;;;13.89;88.96
50684;BME280;36654;45.042;38.994;2022-10-31T06:51:38;100803.81;;;13.73;88.61
50684;BME280;36654;45.042;38.994;2022-10-31T06:54:04;100812.66;;;13.89;88.45
50684;BME280;36654;45.042;38.994;2022-10-31T06:56:29;100841.94;;;14.16;88.09
50684;BME280;36654;45.042;38.994;2022-10-31T06:58:55;100829.47;;;14.35;87.46
50684;BME280;36654;45.042;38.994;2022-10-31T07:01:21;100799.19;;;14.42;86.73
50684;BME280;36654;45.042;38.994;2022-10-31T07:03:46;100808.91;;;14.66;85.96
50684;BME280;36654;45.042;38.994;2022-10-31T07:06:12;100834.59;;;14.87;85.27
50684;BME280;36654;45.042;38.994;2022-10-31T07:08:37;100815.84;;;15.00;84.48
50684;BME280;36654;45.042;38.994;2022-10-31T07:11:03;100801.59;;;15.04;83.65
50684;BME280;36654;45.042;38.994;2022-10-31T07:13:29;100777.59;;;15.04;83.13
50684;BME280;36654;45.042;38.994;2022-10-31T07:16:00;100812.09;;;15.33;82.75
50684;BME280;36654;45.042;38.994;2022-10-31T07:18:26;100798.81;;;15.25;81.94
50684;BME280;36654;45.042;38.994;2022-10-31T07:20:52;100806.81;;;15.25;81.91
50684;BME280;36654;45.042;38.994;2022-10-31T07:23:18;100806.72;;;15.35;81.49
50684;BME280;36654;45.042;38.994;2022-10-31T07:25:44;100813.84;;;15.37;81.23
50684;BME280;36654;45.042;38.994;2022-10-31T07:28:10;100797.84;;;15.34;80.12
50684;BME280;36654;45.042;38.994;2022-10-31T07:30:36;100775.78;;;15.06;79.25
50684;BME280;36654;45.042;38.994;2022-10-31T07:33:02;100809.44;;;15.30;78.56
50684;BME280;36654;45.042;38.994;2022-10-31T07:35:28;100814.69;;;15.44;78.57
50684;BME280;36654;45.042;38.994;2022-10-31T07:37:54;100799.50;;;15.49;77.89
50684;BME280;36654;45.042;38.994;2022-10-31T07:40:21;100787.09;;;15.42;77.50
50684;BME280;36654;45.042;38.994;2022-10-31T07:42:49;100787.88;;;15.56;77.56
50684;BME280;36654;45.042;38.994;2022-10-31T07:45:20;100793.19;;;15.59;77.24
50684;BME280;36654;45.042;38.994;2022-10-31T07:47:48;100804.69;;;15.67;77.26
50684;BME280;36654;45.042;38.994;2022-10-31T07:50:16;100759.41;;;15.52;76.72
50684;BME280;36654;45.042;38.994;2022-10-31T07:52:43;100789.53;;;15.76;75.24
50684;BME280;36654;45.042;38.994;2022-10-31T07:55:09;100788.56;;;15.83;75.10
50684;BME280;36654;45.042;38.994;2022-10-31T07:57:35;100782.34;;;15.81;75.06
50684;BME280;36654;45.042;38.994;2022-10-31T08:00:08;100792.09;;;15.86;74.66
50684;BME280;36654;45.042;38.994;2022-10-31T08:02:35;100746.97;;;15.49;73.58
50684;BME280;36654;45.042;38.994;2022-10-31T08:05:00;100794.03;;;15.64;71.40
50684;BME280;36654;45.042;38.994;2022-10-31T08:07:28;100777.09;;;15.71;70.74
50684;BME280;36654;45.042;38.994;2022-10-31T08:09:54;100782.44;;;15.68;71.12
50684;BME280;36654;45.042;38.994;2022-10-31T08:12:20;100780.66;;;15.64;72.58
50684;BME280;36654;45.042;38.994;2022-10-31T08:14:45;100774.56;;;15.50;74.03
50684;BME280;36654;45.042;38.994;2022-10-31T08:17:11;100779.94;;;15.48;74.55
50684;BME280;36654;45.042;38.994;2022-10-31T08:19:37;100778.06;;;15.57;74.63
50684;BME280;36654;45.042;38.994;2022-10-31T08:22:02;100788.78;;;15.53;74.54
50684;BME280;36654;45.042;38.994;2022-10-31T08:24:28;100791.31;;;15.69;74.22
50684;BME280;36654;45.042;38.994;2022-10-31T08:26:55;100761.09;;;15.64;72.92
50684;BME280;36654;45.042;38.994;2022-10-31T08:29:22;100777.09;;;15.68;71.57
50684;BME280;36654;45.042;38.994;2022-10-31T08:31:48;100777.13;;;15.65;70.30
50684;BME280;36654;45.042;38.994;2022-10-31T08:34:14;100783.44;;;15.53;69.95
50684;BME280;36654;45.042;38.994;2022-10-31T08:36:41;100782.53;;;15.56;69.27
50684;BME280;36654;45.042;38.994;2022-10-31T08:39:10;100747.91;;;15.45;68.42
50684;BME280;36654;45.042;38.994;2022-10-31T08:41:35;100784.38;;;15.48;67.87
50684;BME280;36654;45.042;38.994;2022-10-31T08:44:01;100760.31;;;15.49;67.23
50684;BME280;36654;45.042;38.994;2022-10-31T08:46:26;100778.91;;;15.63;66.07
50684;BME280;36654;45.042;38.994;2022-10-31T08:48:52;100778.03;;;15.61;65.69
50684;BME280;36654;45.042;38.994;2022-10-31T08:51:18;100777.22;;;15.53;65.67
50684;BME280;36654;45.042;38.994;2022-10-31T08:53:43;100763.94;;;15.45;65.59
50684;BME280;36654;45.042;38.994;2022-10-31T08:56:09;100739.94;;;15.41;65.32
50684;BME280;36654;45.042;38.994;2022-10-31T08:58:35;100759.28;;;15.64;64.31
50684;BME280;36654;45.042;38.994;2022-10-31T09:01:01;100760.16;;;15.72;64.08
50684;BME280;36654;45.042;38.994;2022-10-31T09:03:30;100784.22;;;15.69;63.74
50684;BME280;36654;45.042;38.994;2022-10-31T09:05:58;100790.47;;;15.62;63.79
50684;BME280;36654;45.042;38.994;2022-10-31T09:08:24;100790.47;;;15.65;62.76
50684;BME280;36654;45.042;38.994;2022-10-31T09:10:50;100630.13;;;14.71;62.27
50684;BME280;36654;45.042;38.994;2022-10-31T09:13:18;100717.78;;;15.26;62.45
50684;BME280;36654;45.042;38.994;2022-10-31T09:15:46;100764.69;;;15.61;62.12
50684;BME280;36654;45.042;38.994;2022-10-31T09:18:15;100763.72;;;15.68;61.82
50684;BME280;36654;45.042;38.994;2022-10-31T09:20:42;100752.19;;;15.63;61.47
50684;BME280;36654;45.042;38.994;2022-10-31T09:23:18;100767.13;;;15.89;61.83
50684;BME280;36654;45.042;38.994;2022-10-31T09:25:44;100743.94;;;15.89;60.36
50684;BME280;36654;45.042;38.994;2022-10-31T09:28:13;100783.94;;;15.97;59.65
50684;BME280;36654;45.042;38.994;2022-10-31T09:30:39;100770.63;;;15.92;59.53
50684;BME280;36654;45.042;38.994;2022-10-31T09:33:08;100768.88;;;15.90;59.49
50684;BME280;36654;45.042;38.994;2022-10-31T09:35:34;100780.63;;;15.73;59.27
50684;BME280;36654;45.042;38.994;2022-10-31T09:38:02;100748.72;;;15.55;58.86
50684;BME280;36654;45.042;38.994;2022-10-31T09:46:35;100752.34;;;15.48;59.87
50684;BME280;36654;45.042;38.994;2022-10-31T09:52:00;100749.63;;;15.52;59.05
50684;BME280;36654;45.042;38.994;2022-10-31T09:54:36;100756.72;;;15.53;59.59
50684;BME280;36654;45.042;38.994;2022-10-31T09:57:05;100758.44;;;15.61;59.17
50684;BME280;36654;45.042;38.994;2022-10-31T09:59:37;100756.59;;;15.67;58.40
50684;BME280;36654;45.042;38.994;2022-10-31T10:04:55;100687.38;;;15.41;55.51
50684;BME280;36654;45.042;38.994;2022-10-31T10:09:52;100753.91;;;15.73;55.78
50684;BME280;36654;45.042;38.994;2022-10-31T10:20:50;100773.53;;;15.66;56.13
50684;BME280;36654;45.042;38.994;2022-10-31T10:23:35;100718.44;;;15.51;56.10
50684;BME280;36654;45.042;38.994;2022-10-31T10:26:20;100736.13;;;15.66;55.33
50684;BME280;36654;45.042;38.994;2022-10-31T10:28:53;100743.25;;;15.64;56.09
50684;BME280;36654;45.042;38.994;2022-10-31T10:31:23;100745.16;;;15.50;55.94
50684;BME280;36654;45.042;38.994;2022-10-31T10:34:07;100720.28;;;15.45;55.61
50684;BME280;36654;45.042;38.994;2022-10-31T10:36:44;100707.06;;;15.31;56.03
50684;BME280;36654;45.042;38.994;2022-10-31T10:39:41;100718.53;;;15.45;56.27
50684;BME280;36654;45.042;38.994;2022-10-31T10:42:14;100715.00;;;15.39;55.70
50684;BME280;36654;45.042;38.994;2022-10-31T10:44:58;100714.84;;;15.54;54.82
50684;BME280;36654;45.042;38.994;2022-10-31T10:47:47;100701.53;;;15.52;54.38
50684;BME280;36654;45.042;38.994;2022-10-31T10:52:52;100722.09;;;15.40;55.01
50684;BME280;36654;45.042;38.994;2022-10-31T10:57:56;100706.00;;;15.49;55.73
50684;BME280;36654;45.042;38.994;2022-10-31T11:02:58;100716.50;;;15.67;55.28
50684;BME280;36654;45.042;38.994;2022-10-31T11:05:33;100705.84;;;15.70;54.71
50684;BME280;36654;45.042;38.994;2022-10-31T11:08:00;100683.69;;;15.56;54.96
50684;BME280;36654;45.042;38.994;2022-10-31T11:10:25;100695.09;;;15.73;54.94
50684;BME280;36654;45.042;38.994;2022-10-31T11:13:16;100699.31;;;15.96;54.73
50684;BME280;36654;45.042;38.994;2022-10-31T11:15:59;100693.00;;;16.03;54.14
50684;BME280;36654;45.042;38.994;2022-10-31T11:18:26;100694.84;;;15.98;53.97
50684;BME280;36654;45.042;38.994;2022-10-31T11:20:54;100680.59;;;15.96;53.65
50684;BME280;36654;45.042;38.994;2022-10-31T11:23:22;100680.66;;;15.90;54.02
50684;BME280;36654;45.042;38.994;2022-10-31T11:25:55;100681.47;;;15.98;54.41
50684;BME280;36654;45.042;38.994;2022-10-31T11:28:21;100676.22;;;15.87;53.90
50684;BME280;36654;45.042;38.994;2022-10-31T11:30:50;100692.13;;;16.01;53.46
50684;BME280;36654;45.042;38.994;2022-10-31T11:36:35;100688.28;;;16.24;52.46
50684;BME280;36654;45.042;38.994;2022-10-31T11:39:05;100692.69;;;16.28;51.93
50684;BME280;36654;45.042;38.994;2022-10-31T11:41:38;100666.81;;;16.28;52.09
50684;BME280;36654;45.042;38.994;2022-10-31T11:44:16;100678.41;;;16.29;52.64
50684;BME280;36654;45.042;38.994;2022-10-31T11:47:00;100663.28;;;16.25;53.37
50684;BME280;36654;45.042;38.994;2022-10-31T11:50:01;100674.78;;;16.33;54.56
50684;BME280;36654;45.042;38.994;2022-10-31T11:52:30;100657.13;;;16.20;54.75
50684;BME280;36654;45.042;38.994;2022-10-31T11:57:47;100674.44;;;15.91;56.00
50684;BME280;36654;45.042;38.994;2022-10-31T12:02:48;100683.56;;;15.67;57.72
50684;BME280;36654;45.042;38.994;2022-10-31T12:07:42;100683.78;;;15.45;58.72
50684;BME280;36654;45.042;38.994;2022-10-31T12:16:17;100689.25;;;15.33;58.99
50684;BME280;36654;45.042;38.994;2022-10-31T12:18:59;100644.97;;;15.04;59.07
50684;BME280;36654;45.042;38.994;2022-10-31T12:21:44;100691.91;;;15.33;59.72
50684;BME280;36654;45.042;38.994;2022-10-31T12:30:09;100695.50;;;15.30;59.62
50684;BME280;36654;45.042;38.994;2022-10-31T12:35:21;100705.25;;;15.38;60.33
50684;BME280;36654;45.042;38.994;2022-10-31T12:38:50;100706.13;;;15.37;60.49
50684;BME280;36654;45.042;38.994;2022-10-31T12:52:25;100684.88;;;15.23;60.88
50684;BME280;36654;45.042;38.994;2022-10-31T12:57:37;100688.59;;;15.02;62.24
50684;BME280;36654;45.042;38.994;2022-10-31T13:00:12;100718.88;;;15.01;62.62
50684;BME280;36654;45.042;38.994;2022-10-31T13:10:52;100683.53;;;14.62;64.14
50684;BME280;36654;45.042;38.994;2022-10-31T13:13:27;100727.06;;;14.72;64.50
50684;BME280;36654;45.042;38.994;2022-10-31T13:16:00;100710.25;;;14.59;65.02
50684;BME280;36654;45.042;38.994;2022-10-31T13:18:32;100740.44;;;14.67;65.05
50684;BME280;36654;45.042;38.994;2022-10-31T13:21:02;100755.56;;;14.62;64.68
50684;BME280;36654;45.042;38.994;2022-10-31T13:23:32;100764.50;;;14.61;64.57
50684;BME280;36654;45.042;38.994;2022-10-31T13:26:01;100755.59;;;14.57;64.17
50684;BME280;36654;45.042;38.994;2022-10-31T13:31:08;100745.91;;;14.38;62.55
50684;BME280;36654;45.042;38.994;2022-10-31T13:33:48;100756.56;;;14.36;62.72
50684;BME280;36654;45.042;38.994;2022-10-31T13:39:45;100753.06;;;14.19;61.50
50684;BME280;36654;45.042;38.994;2022-10-31T13:42:28;100771.72;;;14.23;61.76
50684;BME280;36654;45.042;38.994;2022-10-31T13:47:40;100752.22;;;14.01;61.60
50684;BME280;36654;45.042;38.994;2022-10-31T13:50:22;100774.44;;;14.13;62.30
50684;BME280;36654;45.042;38.994;2022-10-31T13:52:48;100797.50;;;14.17;62.48
50684;BME280;36654;45.042;38.994;2022-10-31T13:55:40;100790.41;;;14.10;62.68
50684;BME280;36654;45.042;38.994;2022-10-31T13:58:26;100766.44;;;14.02;63.05
50684;BME280;36654;45.042;38.994;2022-10-31T14:03:38;100829.56;;;13.83;63.54
50684;BME280;36654;45.042;38.994;2022-10-31T14:06:06;100783.38;;;13.59;63.70
50684;BME280;36654;45.042;38.994;2022-10-31T14:08:37;100823.34;;;13.69;63.98
50684;BME280;36654;45.042;38.994;2022-10-31T14:11:07;100837.53;;;13.68;64.27
50684;BME280;36654;45.042;38.994;2022-10-31T14:13:37;100835.78;;;13.61;64.45
50684;BME280;36654;45.042;38.994;2022-10-31T14:18:50;100833.09;;;13.54;65.25
50684;BME280;36654;45.042;38.994;2022-10-31T14:23:48;100865.94;;;13.44;65.97
50684;BME280;36654;45.042;38.994;2022-10-31T14:29:02;100881.91;;;13.36;66.40
50684;BME280;36654;45.042;38.994;2022-10-31T14:31:55;100886.31;;;13.27;67.02
50684;BME280;36654;45.042;38.994;2022-10-31T14:34:34;100897.84;;;13.35;67.11
50684;BME280;36654;45.042;38.994;2022-10-31T14:48:44;100914.63;;;13.09;66.18
50684;BME280;36654;45.042;38.994;2022-10-31T14:51:34;100915.47;;;13.02;65.82
50684;BME280;36654;45.042;38.994;2022-10-31T14:54:01;100932.31;;;12.98;65.34
50684;BME280;36654;45.042;38.994;2022-10-31T14:56:34;100943.84;;;12.99;65.20
50684;BME280;36654;45.042;38.994;2022-10-31T14:59:04;100950.06;;;12.96;65.17
50684;BME280;36654;45.042;38.994;2022-10-31T15:01:35;100929.66;;;12.98;64.90
50684;BME280;36654;45.042;38.994;2022-10-31T15:04:15;100926.03;;;12.85;64.89